aviador You're here:

KLUK Decoded Metar

CINCINNATI in OH, USA
Report Time2017-12-11 03:53:00
UTC Time2017-12-11 04:05:30
Flight Rules vfr VFR
WindCalm
Visibility9999 m
Phenomena:N/A
Clouds:N/A
Expected CloudBase > 2,000 ft AGL from Temp-Dew spread
CeilingNone
Temp-1°C (ISA -15)
Dew Point-6°C (69% RH)
AAT-3.7°C
QNH1018 hPa
Density Alt-1,440 ft
Elevation509 ft
Report Wrong Elevation
Raw Report
KLUK 110353Z 00000KT 10SM CLR M01/M06 A3007 RMK AO2 SLP188
T10061061=

Extra information for KLUK:More info

Metar Taf Metar & Taf Last 4 Metars F.Rules Stats Wind Profile Meteogram Temp Stats Airport Information Weather charts Add Link Nearby VenuesMetar ALERT Operation Metar Decoded Social comments

AIRNAV info for KLUK